Time;durP1;ratioP1;P1;durP2;ratioP2;P2;SDS_P1;SDS_P2;PMS_P1;PMS_P2;Temp;Humidity;BMP_temperature;BMP_pressure;BME280_temperature;BME280_humidity;BME280_pressure;Samples;Min_cycle;Max_cycle;Signal;HPM_P1;HPM_P2
2023/12/18 00:01:55;;;;;;;;;;;6.50;99.90;;;;;;7335873;19;109817;-87
2023/12/18 00:04:23;;;;;;;;;;;6.50;99.90;;;;;;7333907;19;109160;-87
2023/12/18 00:06:50;;;;;;;;;;;6.50;99.90;;;;;;7338530;19;110711;-87
2023/12/18 00:09:20;;;;;;;;;;;6.50;99.90;;;;;;7333985;19;109520;-87
2023/12/18 00:11:47;;;;;;;;;;;6.40;99.90;;;;;;7336046;19;110479;-87
2023/12/18 00:14:14;;;;;;;;;;;6.40;99.90;;;;;;7335179;19;108596;-87
2023/12/18 00:16:41;;;;;;;;;;;6.50;99.90;;;;;;7331226;19;111440;-87
2023/12/18 00:19:09;;;;;;;;;;;6.50;99.90;;;;;;7333032;19;109663;-87
2023/12/18 00:21:36;;;;;;;;;;;6.40;99.90;;;;;;7332583;19;110124;-88
2023/12/18 00:24:04;;;;;;;;;;;6.40;99.90;;;;;;7333284;19;110044;-87
2023/12/18 00:26:31;;;;;;;;;;;6.40;99.90;;;;;;7331067;19;112237;-87
2023/12/18 00:28:58;;;;;;;;;;;6.30;99.90;;;;;;7337877;19;108571;-87
2023/12/18 00:31:25;;;;;;;;;;;6.30;99.90;;;;;;7332407;19;113710;-88
2023/12/18 00:33:53;;;;;;;;;;;6.30;99.90;;;;;;7329261;19;108761;-89
2023/12/18 00:36:20;;;;;;;;;;;6.30;99.90;;;;;;7328645;19;109467;-88
2023/12/18 00:38:47;;;;;;;;;;;6.30;99.90;;;;;;7329276;19;110533;-87
2023/12/18 00:41:15;;;;;;;;;;;6.30;99.90;;;;;;7332941;19;108527;-87
2023/12/18 00:43:42;;;;;;;;;;;6.30;99.90;;;;;;7326062;19;110513;-87
2023/12/18 00:46:09;;;;;;;;;;;6.30;99.90;;;;;;7330156;19;110232;-87
2023/12/18 00:48:36;;;;;;;;;;;6.30;99.90;;;;;;7344886;19;108508;-87
2023/12/18 00:51:04;;;;;;;;;;;6.30;99.90;;;;;;7336381;19;110069;-86
2023/12/18 00:53:31;;;;;;;;;;;6.30;99.90;;;;;;7334215;19;109168;-86
2023/12/18 00:55:58;;;;;;;;;;;6.40;99.90;;;;;;7340815;19;108821;-87
2023/12/18 00:58:25;;;;;;;;;;;6.40;99.90;;;;;;7339229;19;110141;-87
2023/12/18 01:00:52;;;;;;;;;;;6.40;99.90;;;;;;7336409;19;108976;-87
2023/12/18 01:03:20;;;;;;;;;;;6.50;99.90;;;;;;7338125;19;109370;-88
2023/12/18 01:05:47;;;;;;;;;;;6.40;99.90;;;;;;7339469;19;113907;-87
2023/12/18 01:08:14;;;;;;;;;;;6.50;99.90;;;;;;7340108;19;109235;-89
2023/12/18 01:10:41;;;;;;;;;;;6.50;99.90;;;;;;7346066;19;111050;-87
2023/12/18 01:13:08;;;;;;;;;;;6.50;99.90;;;;;;7339189;19;108406;-87
2023/12/18 01:15:36;;;;;;;;;;;6.50;99.90;;;;;;7338443;19;111174;-87
2023/12/18 01:18:03;;;;;;;;;;;6.60;99.90;;;;;;7334665;19;110233;-86
2023/12/18 01:20:30;;;;;;;;;;;6.60;99.90;;;;;;7337199;19;110941;-87
2023/12/18 01:22:58;;;;;;;;;;;6.60;99.90;;;;;;7340809;19;108766;-87
2023/12/18 01:25:31;;;;;;;;;;;6.60;99.90;;;;;;7332375;19;110286;-87
2023/12/18 01:27:59;;;;;;;;;;;6.70;99.90;;;;;;7338014;19;109101;-87
2023/12/18 01:30:26;;;;;;;;;;;6.70;99.90;;;;;;7336521;19;109459;-87
2023/12/18 01:32:53;;;;;;;;;;;6.70;99.90;;;;;;7342687;19;109780;-87
2023/12/18 01:35:21;;;;;;;;;;;6.70;99.90;;;;;;7335323;19;108944;-87
2023/12/18 01:37:48;;;;;;;;;;;6.80;99.90;;;;;;7336311;19;109184;-87
2023/12/18 01:40:15;;;;;;;;;;;6.80;99.90;;;;;;7338541;19;109649;-87
2023/12/18 01:42:45;;;;;;;;;;;6.80;99.90;;;;;;7335965;19;109953;-88
2023/12/18 01:45:12;;;;;;;;;;;6.80;99.90;;;;;;7334085;19;111006;-87
2023/12/18 01:47:40;;;;;;;;;;;6.80;99.90;;;;;;7333508;19;110609;-87
2023/12/18 01:50:07;;;;;;;;;;;6.80;99.90;;;;;;7335591;19;109336;-88
2023/12/18 01:52:35;;;;;;;;;;;6.80;99.90;;;;;;7339885;19;111964;-87
2023/12/18 01:55:03;;;;;;;;;;;6.80;99.90;;;;;;7341808;19;108852;-87
2023/12/18 01:57:34;;;;;;;;;;;6.90;99.90;;;;;;7332366;19;110965;-88
2023/12/18 02:00:02;;;;;;;;;;;6.90;99.90;;;;;;7336330;19;110732;-87
2023/12/18 02:02:29;;;;;;;;;;;6.90;99.90;;;;;;7334875;19;111599;-87
2023/12/18 02:04:56;;;;;;;;;;;6.90;99.90;;;;;;7334688;19;110982;-87
2023/12/18 02:07:24;;;;;;;;;;;6.90;99.90;;;;;;7336797;19;109912;-87
2023/12/18 02:09:51;;;;;;;;;;;6.90;99.90;;;;;;7338601;19;109165;-87
2023/12/18 02:12:19;;;;;;;;;;;6.90;99.90;;;;;;7334729;19;109434;-88
2023/12/18 02:14:46;;;;;;;;;;;7.00;99.90;;;;;;7335538;19;108911;-87
2023/12/18 02:17:13;;;;;;;;;;;7.00;99.90;;;;;;7341354;19;109687;-87
2023/12/18 02:19:40;;;;;;;;;;;7.00;99.90;;;;;;7331167;19;108426;-87
2023/12/18 02:22:07;;;;;;;;;;;7.00;99.90;;;;;;7337575;19;108530;-87
2023/12/18 02:24:35;;;;;;;;;;;7.00;99.90;;;;;;7335260;19;110531;-87
2023/12/18 02:27:03;;;;;;;;;;;7.00;99.90;;;;;;7337138;19;111986;-87
2023/12/18 02:29:30;;;;;;;;;;;7.00;99.90;;;;;;7333874;19;109477;-87
2023/12/18 02:31:57;;;;;;;;;;;7.00;99.90;;;;;;7334021;19;112260;-87
2023/12/18 02:34:24;;;;;;;;;;;7.00;99.90;;;;;;7333840;19;108518;-87
2023/12/18 02:36:52;;;;;;;;;;;7.10;99.90;;;;;;7337006;19;108500;-87
2023/12/18 02:39:19;;;;;;;;;;;7.10;99.90;;;;;;7341847;19;110418;-87
2023/12/18 02:41:46;;;;;;;;;;;7.00;99.90;;;;;;7338420;19;109600;-87
2023/12/18 02:44:13;;;;;;;;;;;7.00;99.90;;;;;;7338603;19;109332;-87
2023/12/18 02:46:40;;;;;;;;;;;7.00;99.90;;;;;;7340947;19;109323;-87
2023/12/18 02:49:07;;;;;;;;;;;7.00;99.90;;;;;;7340343;19;108453;-88
2023/12/18 02:51:34;;;;;;;;;;;7.00;99.90;;;;;;7336505;19;110180;-87
2023/12/18 02:54:03;;;;;;;;;;;7.10;99.90;;;;;;7339350;19;109347;-87
2023/12/18 02:56:30;;;;;;;;;;;7.10;99.90;;;;;;7339523;19;110357;-87
2023/12/18 02:58:57;;;;;;;;;;;7.10;99.90;;;;;;7345568;19;110018;-87
2023/12/18 03:01:24;;;;;;;;;;;7.10;99.90;;;;;;7336600;19;109036;-87
2023/12/18 03:03:51;;;;;;;;;;;7.10;99.90;;;;;;7343887;19;111160;-88
2023/12/18 03:06:19;;;;;;;;;;;7.10;99.90;;;;;;7369077;19;108942;-87
2023/12/18 03:08:46;;;;;;;;;;;7.10;99.90;;;;;;7374149;19;108302;-88
2023/12/18 03:11:13;;;;;;;;;;;7.10;99.90;;;;;;7371480;19;109995;-88
2023/12/18 03:13:40;;;;;;;;;;;7.20;99.90;;;;;;7377899;19;108128;-87
2023/12/18 03:16:08;;;;;;;;;;;7.20;99.90;;;;;;7372849;19;109459;-87
2023/12/18 03:18:35;;;;;;;;;;;7.20;99.90;;;;;;7373858;19;109760;-87
2023/12/18 03:21:02;;;;;;;;;;;7.20;99.90;;;;;;7376420;19;109214;-87
2023/12/18 03:23:29;;;;;;;;;;;7.30;99.90;;;;;;7350310;19;109339;-87
2023/12/18 03:25:57;;;;;;;;;;;7.30;99.90;;;;;;7342400;19;108615;-88
2023/12/18 03:28:24;;;;;;;;;;;7.20;99.90;;;;;;7340387;19;110211;-87
2023/12/18 03:30:54;;;;;;;;;;;7.30;99.90;;;;;;7336514;19;110243;-87
2023/12/18 03:33:21;;;;;;;;;;;7.30;99.90;;;;;;7341567;19;108571;-88
2023/12/18 03:35:49;;;;;;;;;;;7.30;99.90;;;;;;7337275;19;109050;-87
2023/12/18 03:38:16;;;;;;;;;;;7.30;99.90;;;;;;7337755;19;110640;-87
2023/12/18 03:40:43;;;;;;;;;;;7.30;99.90;;;;;;7333116;19;109522;-86
2023/12/18 03:43:10;;;;;;;;;;;7.30;99.90;;;;;;7338665;19;109035;-87
2023/12/18 03:45:38;;;;;;;;;;;7.30;99.90;;;;;;7330885;19;109324;-86
2023/12/18 03:48:05;;;;;;;;;;;7.40;99.90;;;;;;7335984;19;109235;-86
2023/12/18 03:50:32;;;;;;;;;;;7.40;99.90;;;;;;7333857;19;110462;-86
2023/12/18 03:52:59;;;;;;;;;;;7.40;99.90;;;;;;7334189;19;110020;-86
2023/12/18 03:55:26;;;;;;;;;;;7.40;99.90;;;;;;7334407;19;109104;-86
2023/12/18 03:57:54;;;;;;;;;;;7.40;99.90;;;;;;7332890;19;110856;-87
2023/12/18 04:00:21;;;;;;;;;;;7.40;99.90;;;;;;7334533;19;109067;-87
2023/12/18 04:02:48;;;;;;;;;;;7.40;99.90;;;;;;7339351;19;109253;-87
2023/12/18 04:05:16;;;;;;;;;;;7.40;99.90;;;;;;7340823;19;110965;-87
2023/12/18 04:07:43;;;;;;;;;;;7.40;99.90;;;;;;7338584;19;109836;-87
2023/12/18 04:10:10;;;;;;;;;;;7.40;99.90;;;;;;7334739;19;110960;-87
2023/12/18 04:12:38;;;;;;;;;;;7.40;99.90;;;;;;7337337;19;109046;-87
2023/12/18 04:15:06;;;;;;;;;;;7.40;99.90;;;;;;7332262;19;110145;-86
2023/12/18 04:17:33;;;;;;;;;;;7.40;99.90;;;;;;7332968;19;109462;-87
2023/12/18 04:20:00;;;;;;;;;;;7.50;99.90;;;;;;7334676;19;109337;-87
2023/12/18 04:22:28;;;;;;;;;;;7.40;99.90;;;;;;7344045;19;109565;-87
2023/12/18 04:24:55;;;;;;;;;;;7.40;99.90;;;;;;7339151;19;111065;-87
2023/12/18 04:27:22;;;;;;;;;;;7.50;99.90;;;;;;7348562;19;108463;-87
2023/12/18 04:29:49;;;;;;;;;;;7.50;99.90;;;;;;7340111;19;109708;-87
2023/12/18 04:32:16;;;;;;;;;;;7.50;99.90;;;;;;7342208;19;110030;-87
2023/12/18 04:34:43;;;;;;;;;;;7.40;99.90;;;;;;7337448;19;110064;-87
2023/12/18 04:37:11;;;;;;;;;;;7.40;99.90;;;;;;7340039;19;113662;-87
2023/12/18 04:39:39;;;;;;;;;;;7.40;99.90;;;;;;7339569;19;108967;-87
2023/12/18 04:42:06;;;;;;;;;;;7.40;99.90;;;;;;7341796;19;110764;-87
2023/12/18 04:44:33;;;;;;;;;;;7.50;99.90;;;;;;7335154;19;112694;-87
2023/12/18 04:47:01;;;;;;;;;;;7.50;99.90;;;;;;7342438;19;110314;-87
2023/12/18 04:49:28;;;;;;;;;;;7.50;99.90;;;;;;7344168;19;110196;-88
2023/12/18 04:51:55;;;;;;;;;;;7.50;99.90;;;;;;7340935;19;110387;-87
2023/12/18 04:54:22;;;;;;;;;;;7.50;99.90;;;;;;7340891;19;109644;-87
2023/12/18 04:56:50;;;;;;;;;;;7.50;99.90;;;;;;7339190;19;110716;-87
2023/12/18 04:59:17;;;;;;;;;;;7.50;99.90;;;;;;7340902;19;108889;-87
2023/12/18 05:01:44;;;;;;;;;;;7.50;99.90;;;;;;7340350;19;108672;-87
2023/12/18 05:04:11;;;;;;;;;;;7.50;99.90;;;;;;7338417;19;113345;-87
2023/12/18 05:06:39;;;;;;;;;;;7.50;99.90;;;;;;7340476;19;109048;-88
2023/12/18 05:09:07;;;;;;;;;;;7.50;99.90;;;;;;7345597;19;109313;-87
2023/12/18 05:11:34;;;;;;;;;;;7.50;99.90;;;;;;7336638;19;108640;-87
2023/12/18 05:14:01;;;;;;;;;;;7.50;99.90;;;;;;7339286;19;109398;-86
2023/12/18 05:16:28;;;;;;;;;;;7.50;99.90;;;;;;7337537;19;110522;-87
2023/12/18 05:18:56;;;;;;;;;;;7.50;99.90;;;;;;7340729;19;112064;-87
2023/12/18 05:21:24;;;;;;;;;;;7.50;99.90;;;;;;7337739;19;109541;-87
2023/12/18 05:23:51;;;;;;;;;;;7.60;99.90;;;;;;7340569;19;110278;-87
2023/12/18 05:26:18;;;;;;;;;;;7.60;99.90;;;;;;7337232;19;108763;-90
2023/12/18 05:28:45;;;;;;;;;;;7.60;99.90;;;;;;7339936;19;109930;-87
2023/12/18 05:31:12;;;;;;;;;;;7.60;99.90;;;;;;7341283;19;112810;-88
2023/12/18 05:33:39;;;;;;;;;;;7.60;99.90;;;;;;7336775;19;109174;-87
2023/12/18 05:36:07;;;;;;;;;;;7.60;99.90;;;;;;7336658;19;110160;-87
2023/12/18 05:38:34;;;;;;;;;;;7.60;99.90;;;;;;7337383;19;108804;-88
2023/12/18 05:41:01;;;;;;;;;;;7.60;99.90;;;;;;7337071;19;110041;-88
2023/12/18 05:43:28;;;;;;;;;;;7.70;99.90;;;;;;7335904;19;112465;-87
2023/12/18 05:45:56;;;;;;;;;;;7.60;99.90;;;;;;7338531;19;109478;-87
2023/12/18 05:48:23;;;;;;;;;;;7.70;99.90;;;;;;7334546;19;111999;-87
2023/12/18 05:50:51;;;;;;;;;;;7.60;99.90;;;;;;7335652;19;111238;-87
2023/12/18 05:53:18;;;;;;;;;;;7.70;99.90;;;;;;7345576;19;108758;-87
2023/12/18 05:55:45;;;;;;;;;;;7.70;99.90;;;;;;7338749;19;109502;-87
2023/12/18 05:58:12;;;;;;;;;;;7.70;99.90;;;;;;7337131;19;108836;-90
2023/12/18 06:00:39;;;;;;;;;;;7.70;99.90;;;;;;7339034;19;108628;-89
2023/12/18 06:03:06;;;;;;;;;;;7.70;99.90;;;;;;7338815;19;109337;-86
2023/12/18 06:05:34;;;;;;;;;;;7.70;99.90;;;;;;7336938;19;109239;-87
2023/12/18 06:08:01;;;;;;;;;;;7.70;99.90;;;;;;7337919;19;108776;-87
2023/12/18 06:10:28;;;;;;;;;;;7.70;99.90;;;;;;7335710;19;111557;-87
2023/12/18 06:12:55;;;;;;;;;;;7.70;99.90;;;;;;7337106;19;108638;-87
2023/12/18 06:15:23;;;;;;;;;;;7.70;99.90;;;;;;7340591;19;110723;-86
2023/12/18 06:17:50;;;;;;;;;;;7.70;99.90;;;;;;7334635;19;109224;-84
2023/12/18 06:20:17;;;;;;;;;;;7.80;99.90;;;;;;7337435;19;110091;-86
2023/12/18 06:22:44;;;;;;;;;;;7.80;99.90;;;;;;7343021;19;109176;-87
2023/12/18 06:25:14;;;;;;;;;;;7.80;99.90;;;;;;7346291;19;108528;-86
2023/12/18 06:27:44;;;;;;;;;;;7.80;99.90;;;;;;7345701;19;109721;-87
2023/12/18 06:30:11;;;;;;;;;;;7.80;99.90;;;;;;7345807;19;110409;-87
2023/12/18 06:32:39;;;;;;;;;;;7.80;99.90;;;;;;7343724;19;109323;-88
2023/12/18 06:35:06;;;;;;;;;;;7.80;99.90;;;;;;7347095;19;109397;-88
2023/12/18 06:37:33;;;;;;;;;;;7.80;99.90;;;;;;7350626;19;110548;-88
2023/12/18 06:40:01;;;;;;;;;;;7.80;99.90;;;;;;7342472;19;111148;-87
2023/12/18 06:45:37;;;;;;;;;;;7.80;99.90;;;;;;7337834;19;108582;-86
2023/12/18 06:48:04;;;;;;;;;;;7.80;99.90;;;;;;7339761;19;108597;-86
2023/12/18 06:50:32;;;;;;;;;;;7.80;99.90;;;;;;7338531;19;109303;-86
2023/12/18 06:53:00;;;;;;;;;;;7.90;99.90;;;;;;7340264;19;111478;-86
2023/12/18 06:55:28;;;;;;;;;;;7.90;99.90;;;;;;7341811;19;109042;-87
2023/12/18 06:57:55;;;;;;;;;;;7.90;99.90;;;;;;7340945;19;110601;-87
2023/12/18 07:00:22;;;;;;;;;;;7.90;99.90;;;;;;7358424;19;108591;-87
2023/12/18 07:03:06;;;;;;;;;;;7.80;99.90;;;;;;7351996;19;109716;-86
2023/12/18 07:05:34;;;;;;;;;;;7.80;99.90;;;;;;7361647;19;108585;-89
2023/12/18 07:08:01;;;;;;;;;;;7.90;99.90;;;;;;7375053;19;108523;-88
2023/12/18 07:10:28;;;;;;;;;;;7.80;99.90;;;;;;7373483;19;110157;-87
2023/12/18 07:12:55;;;;;;;;;;;7.90;99.90;;;;;;7374109;19;107829;-88
2023/12/18 07:15:26;;;;;;;;;;;7.90;99.90;;;;;;7372942;19;120097;-92
2023/12/18 07:17:53;;;;;;;;;;;7.80;99.90;;;;;;7373666;19;109454;-90
2023/12/18 07:20:21;;;;;;;;;;;7.90;99.90;;;;;;7380014;19;107479;-90
2023/12/18 07:22:48;;;;;;;;;;;7.90;99.90;;;;;;7377535;19;109202;-92
2023/12/18 07:25:19;;;;;;;;;;;7.90;99.90;;;;;;7374253;19;108827;-89
2023/12/18 07:27:53;;;;;;;;;;;7.90;99.90;;;;;;7368443;19;108029;-89
2023/12/18 07:30:30;;;;;;;;;;;7.80;99.90;;;;;;7346981;19;110318;-92
2023/12/18 07:32:57;;;;;;;;;;;7.80;99.90;;;;;;7342707;19;110346;-89
2023/12/18 07:35:25;;;;;;;;;;;7.90;99.90;;;;;;7349148;19;109489;-90
2023/12/18 07:37:53;;;;;;;;;;;7.80;99.90;;;;;;7340654;19;111585;-91
2023/12/18 07:40:21;;;;;;;;;;;7.80;99.90;;;;;;7341612;19;108640;-89
2023/12/18 07:42:48;;;;;;;;;;;7.80;99.90;;;;;;7345120;19;109161;-90
2023/12/18 07:45:15;;;;;;;;;;;7.90;99.90;;;;;;7348012;19;108794;-92
2023/12/18 07:47:42;;;;;;;;;;;7.90;99.90;;;;;;7343929;19;110131;-90
2023/12/18 07:50:10;;;;;;;;;;;7.90;99.90;;;;;;7341212;19;110532;-89
2023/12/18 07:52:38;;;;;;;;;;;7.90;99.90;;;;;;7339248;19;109432;-87
2023/12/18 07:55:05;;;;;;;;;;;7.90;99.90;;;;;;7337265;19;110023;-88
2023/12/18 07:57:32;;;;;;;;;;;7.90;99.90;;;;;;7334606;19;110425;-84
2023/12/18 08:03:10;;;;;;;;;;;7.80;99.90;;;;;;7339259;19;108430;-83
2023/12/18 08:05:38;;;;;;;;;;;7.80;99.90;;;;;;7347670;19;110560;-83
2023/12/18 08:08:05;;;;;;;;;;;7.80;99.90;;;;;;7342326;19;111932;-83
2023/12/18 08:10:32;;;;;;;;;;;7.80;99.90;;;;;;7341832;19;110454;-83
2023/12/18 08:12:59;;;;;;;;;;;7.70;99.90;;;;;;7343977;19;108598;-83
2023/12/18 08:15:26;;;;;;;;;;;7.80;99.90;;;;;;7339409;19;111579;-83
2023/12/18 08:17:53;;;;;;;;;;;7.80;99.90;;;;;;7339757;19;110447;-83
2023/12/18 08:20:21;;;;;;;;;;;7.80;99.90;;;;;;7342397;19;108893;-83
2023/12/18 08:22:48;;;;;;;;;;;7.80;99.90;;;;;;7340822;19;109108;-83
2023/12/18 08:25:15;;;;;;;;;;;7.80;99.90;;;;;;7340728;19;110624;-83
2023/12/18 08:27:42;;;;;;;;;;;7.80;99.90;;;;;;7343972;19;108665;-83
2023/12/18 08:30:10;;;;;;;;;;;7.80;99.90;;;;;;7342062;19;110255;-83
2023/12/18 08:32:38;;;;;;;;;;;7.80;99.90;;;;;;7341793;19;108656;-83
2023/12/18 08:35:06;;;;;;;;;;;7.80;99.90;;;;;;7343819;19;109472;-83
2023/12/18 08:37:34;;;;;;;;;;;7.80;99.90;;;;;;7338408;19;113606;-83
2023/12/18 08:40:01;;;;;;;;;;;7.80;99.90;;;;;;7344639;19;109947;-83
2023/12/18 08:42:28;;;;;;;;;;;7.80;99.90;;;;;;7338262;19;109053;-83
2023/12/18 08:44:55;;;;;;;;;;;7.80;99.90;;;;;;7342614;19;109198;-83
2023/12/18 08:47:24;;;;;;;;;;;7.90;99.90;;;;;;7339931;19;108595;-84
2023/12/18 08:49:51;;;;;;;;;;;7.90;99.90;;;;;;7348789;19;109556;-83
2023/12/18 08:52:18;;;;;;;;;;;7.90;99.90;;;;;;7340209;19;109378;-83
2023/12/18 08:54:45;;;;;;;;;;;8.00;99.90;;;;;;7344381;19;108615;-84
2023/12/18 08:57:13;;;;;;;;;;;7.90;99.90;;;;;;7341238;19;109667;-85
2023/12/18 08:59:40;;;;;;;;;;;7.90;99.90;;;;;;7344849;19;109531;-83
2023/12/18 09:02:07;;;;;;;;;;;7.90;99.90;;;;;;7342257;19;109747;-83
2023/12/18 09:04:34;;;;;;;;;;;7.90;99.90;;;;;;7340704;19;110253;-83
2023/12/18 09:07:02;;;;;;;;;;;7.90;99.90;;;;;;7336724;19;108339;-83
2023/12/18 09:09:29;;;;;;;;;;;8.00;99.90;;;;;;7346432;19;112095;-83
2023/12/18 09:11:56;;;;;;;;;;;8.00;99.90;;;;;;7336996;19;109364;-83
2023/12/18 09:14:23;;;;;;;;;;;8.00;99.90;;;;;;7344661;19;108782;-91
2023/12/18 09:16:50;;;;;;;;;;;7.90;99.90;;;;;;7343271;19;110846;-90
2023/12/18 09:19:17;;;;;;;;;;;8.00;99.90;;;;;;7342222;19;110074;-87
2023/12/18 09:21:44;;;;;;;;;;;8.00;99.90;;;;;;7344955;19;108770;-87
2023/12/18 09:24:12;;;;;;;;;;;8.00;99.90;;;;;;7347899;19;110660;-91
2023/12/18 09:26:39;;;;;;;;;;;7.90;99.90;;;;;;7341659;19;108594;-87
2023/12/18 09:29:06;;;;;;;;;;;7.90;99.90;;;;;;7339272;19;110885;-87
2023/12/18 09:31:34;;;;;;;;;;;7.90;99.90;;;;;;7345865;19;110777;-88
2023/12/18 09:34:02;;;;;;;;;;;7.90;99.90;;;;;;7343087;19;109404;-89
2023/12/18 09:36:29;;;;;;;;;;;7.90;99.90;;;;;;7341709;19;109272;-89
2023/12/18 09:38:56;;;;;;;;;;;7.80;99.90;;;;;;7344452;19;108658;-88
2023/12/18 09:41:24;;;;;;;;;;;7.80;99.90;;;;;;7340650;19;111604;-89
2023/12/18 09:43:52;;;;;;;;;;;7.80;99.90;;;;;;7340501;19;113517;-88
2023/12/18 09:46:23;;;;;;;;;;;7.80;99.90;;;;;;7343852;19;109486;-90
2023/12/18 09:48:50;;;;;;;;;;;7.80;99.90;;;;;;7342863;19;109234;-88
2023/12/18 09:51:22;;;;;;;;;;;7.80;99.90;;;;;;7341523;19;109362;-88
2023/12/18 09:53:50;;;;;;;;;;;7.80;99.90;;;;;;7346923;19;108580;-87
2023/12/18 09:56:20;;;;;;;;;;;7.80;99.90;;;;;;7343170;19;109989;-90
2023/12/18 09:58:48;;;;;;;;;;;7.90;99.90;;;;;;7346054;19;109716;-92
2023/12/18 10:01:15;;;;;;;;;;;7.90;99.90;;;;;;7344616;19;111469;-90
2023/12/18 10:03:42;;;;;;;;;;;7.80;99.90;;;;;;7346584;19;109318;-93
2023/12/18 10:06:10;;;;;;;;;;;7.90;99.90;;;;;;7344715;19;108536;-90
2023/12/18 10:08:37;;;;;;;;;;;7.90;99.90;;;;;;7342275;19;109903;-89
2023/12/18 10:11:04;;;;;;;;;;;7.90;99.90;;;;;;7345038;19;109941;-90
2023/12/18 10:13:31;;;;;;;;;;;7.90;99.90;;;;;;7339368;19;109149;-90
2023/12/18 10:15:58;;;;;;;;;;;8.00;99.90;;;;;;7346162;19;110719;-91
2023/12/18 10:18:26;;;;;;;;;;;8.00;99.90;;;;;;7343971;19;108422;-91
2023/12/18 10:20:54;;;;;;;;;;;8.00;99.90;;;;;;7341553;19;111734;-90
2023/12/18 10:23:21;;;;;;;;;;;8.00;99.90;;;;;;7339749;19;110446;-91
2023/12/18 10:25:48;;;;;;;;;;;7.90;99.90;;;;;;7332301;19;109282;-91
2023/12/18 10:28:16;;;;;;;;;;;7.90;99.90;;;;;;7340312;19;111450;-63
2023/12/18 10:30:43;;;;;;;;;;;7.90;99.90;;;;;;7333328;19;109181;-63
2023/12/18 10:33:11;;;;;;;;;;;7.90;99.90;;;;;;7328963;19;108904;-63
2023/12/18 10:35:39;;;;;;;;;;;7.90;99.90;;;;;;7333747;19;109000;-63
2023/12/18 10:38:06;;;;;;;;;;;7.90;99.90;;;;;;7334623;19;109286;-63
2023/12/18 10:40:34;;;;;;;;;;;7.90;99.90;;;;;;7335760;19;109284;-63
2023/12/18 10:43:16;;;;;;;;;;;7.90;99.90;;;;;;7331476;19;109747;-63
2023/12/18 10:45:43;;;;;;;;;;;7.90;99.90;;;;;;7334400;19;109241;-63
2023/12/18 10:48:12;;;;;;;;;;;7.80;99.90;;;;;;7333087;19;109434;-68
2023/12/18 10:50:39;;;;;;;;;;;7.90;99.90;;;;;;7335177;19;109365;-68
2023/12/18 10:53:08;;;;;;;;;;;7.90;99.90;;;;;;7334353;19;109390;-65
2023/12/18 10:55:36;;;;;;;;;;;7.90;99.90;;;;;;7334714;19;108746;-64
2023/12/18 10:58:04;;;;;;;;;;;7.80;99.90;;;;;;7333111;19;109124;-64
2023/12/18 11:00:32;;;;;;;;;;;7.80;99.90;;;;;;7339938;19;108778;-64
2023/12/18 11:03:01;;;;;;;;;;;7.90;99.90;;;;;;7330996;19;112738;-64
2023/12/18 11:05:29;;;;;;;;;;;7.80;99.90;;;;;;7330265;19;109481;-67
2023/12/18 11:07:56;;;;;;;;;;;7.90;99.90;;;;;;7333253;19;109669;-64
2023/12/18 11:10:27;;;;;;;;;;;7.90;99.90;;;;;;7334226;19;109342;-64
2023/12/18 11:13:00;;;;;;;;;;;7.80;99.90;;;;;;7333293;19;108892;-64
2023/12/18 11:15:30;;;;;;;;;;;7.80;99.90;;;;;;7328096;19;110938;-64
2023/12/18 11:18:06;;;;;;;;;;;7.80;99.90;;;;;;7330884;19;110940;-64
2023/12/18 11:20:39;;;;;;;;;;;7.80;99.90;;;;;;7338206;19;110816;-65
2023/12/18 11:23:06;;;;;;;;;;;7.80;99.90;;;;;;7331917;19;109269;-64
2023/12/18 11:25:38;;;;;;;;;;;7.80;99.90;;;;;;7330529;19;109364;-64
2023/12/18 11:28:06;;;;;;;;;;;7.90;99.90;;;;;;7327637;19;109151;-64
2023/12/18 11:30:37;;;;;;;;;;;7.90;99.90;;;;;;7326337;19;109119;-64
2023/12/18 11:33:05;;;;;;;;;;;7.90;99.90;;;;;;7330225;19;110413;-64
2023/12/18 11:35:34;;;;;;;;;;;7.90;99.90;;;;;;7333715;19;109929;-64
2023/12/18 11:38:06;;;;;;;;;;;7.90;99.90;;;;;;7330478;19;109313;-64
2023/12/18 11:40:39;;;;;;;;;;;7.90;99.90;;;;;;7333281;19;108700;-64
2023/12/18 11:43:10;;;;;;;;;;;7.90;99.90;;;;;;7335712;19;109426;-65
2023/12/18 11:45:41;;;;;;;;;;;7.90;99.90;;;;;;7330749;19;108871;-72
2023/12/18 11:48:16;;;;;;;;;;;7.90;99.90;;;;;;7333341;19;110057;-66
2023/12/18 11:50:48;;;;;;;;;;;7.90;99.90;;;;;;7330055;19;109080;-72
2023/12/18 11:53:20;;;;;;;;;;;7.80;99.90;;;;;;7333018;19;108776;-69
2023/12/18 11:55:49;;;;;;;;;;;7.80;99.90;;;;;;7331308;19;109341;-65
2023/12/18 11:58:21;;;;;;;;;;;7.80;99.90;;;;;;7333522;19;109448;-64
2023/12/18 12:00:48;;;;;;;;;;;7.80;99.90;;;;;;7329918;19;110129;-64
2023/12/18 12:03:16;;;;;;;;;;;7.90;99.90;;;;;;7331524;19;109347;-64
2023/12/18 12:05:45;;;;;;;;;;;7.90;99.90;;;;;;7332940;19;109517;-64
2023/12/18 12:08:12;;;;;;;;;;;7.90;99.90;;;;;;7331253;19;108903;-64
2023/12/18 12:10:43;;;;;;;;;;;7.90;99.90;;;;;;7327922;19;109164;-64
2023/12/18 12:13:20;;;;;;;;;;;7.80;99.90;;;;;;7327482;19;108678;-64
2023/12/18 12:15:57;;;;;;;;;;;7.90;99.90;;;;;;7330625;19;110484;-64
2023/12/18 12:18:25;;;;;;;;;;;7.90;99.90;;;;;;7328350;19;110192;-64
2023/12/18 12:20:53;;;;;;;;;;;7.90;99.90;;;;;;7333592;19;108622;-64
2023/12/18 12:23:20;;;;;;;;;;;7.90;99.90;;;;;;7321050;19;110456;-64
2023/12/18 12:25:49;;;;;;;;;;;7.90;99.90;;;;;;7325315;19;109931;-64
2023/12/18 12:28:17;;;;;;;;;;;8.00;99.90;;;;;;7323514;19;110270;-65
2023/12/18 12:30:44;;;;;;;;;;;8.00;99.90;;;;;;7327901;19;111797;-64
2023/12/18 12:33:12;;;;;;;;;;;8.00;99.90;;;;;;7333201;19;109144;-64
2023/12/18 12:35:41;;;;;;;;;;;8.10;99.90;;;;;;7328324;19;109384;-64
2023/12/18 12:38:08;;;;;;;;;;;8.10;99.90;;;;;;7326348;19;110619;-67
2023/12/18 12:40:44;;;;;;;;;;;8.10;99.90;;;;;;7327022;19;109980;-64
2023/12/18 12:43:13;;;;;;;;;;;8.10;99.90;;;;;;7334074;19;110320;-67
2023/12/18 12:45:41;;;;;;;;;;;8.10;99.90;;;;;;7336055;19;109122;-64
2023/12/18 12:48:10;;;;;;;;;;;8.20;99.90;;;;;;7334058;19;109495;-64
2023/12/18 12:50:38;;;;;;;;;;;8.20;99.90;;;;;;7312288;19;109838;-64
2023/12/18 12:53:09;;;;;;;;;;;8.20;99.90;;;;;;7339670;19;108926;-64
2023/12/18 12:55:38;;;;;;;;;;;8.20;99.90;;;;;;7337584;19;108659;-64
2023/12/18 12:58:06;;;;;;;;;;;8.20;99.90;;;;;;7333282;19;110339;-64
2023/12/18 13:00:33;;;;;;;;;;;8.20;99.90;;;;;;7336395;19;109314;-64
2023/12/18 13:03:01;;;;;;;;;;;8.30;99.90;;;;;;7337649;19;112482;-64
2023/12/18 13:05:29;;;;;;;;;;;8.30;99.90;;;;;;7332611;19;109798;-64
2023/12/18 13:07:58;;;;;;;;;;;8.30;99.90;;;;;;7333712;19;110490;-64
2023/12/18 13:10:28;;;;;;;;;;;8.30;99.90;;;;;;7339066;19;109400;-65
2023/12/18 13:12:56;;;;;;;;;;;8.30;99.90;;;;;;7339049;19;110718;-65
2023/12/18 13:15:23;;;;;;;;;;;8.40;99.90;;;;;;7335713;19;108615;-64
2023/12/18 13:17:51;;;;;;;;;;;8.40;99.90;;;;;;7337951;19;109117;-64
2023/12/18 13:20:20;;;;;;;;;;;8.50;99.90;;;;;;7331686;19;108539;-64
2023/12/18 13:22:54;;;;;;;;;;;8.40;99.90;;;;;;7337507;19;109431;-64
2023/12/18 13:25:22;;;;;;;;;;;8.50;99.90;;;;;;7330922;19;109697;-64
2023/12/18 13:27:49;;;;;;;;;;;8.50;99.90;;;;;;7337571;19;109130;-64
2023/12/18 13:30:16;;;;;;;;;;;8.50;99.90;;;;;;7334801;19;110105;-64
2023/12/18 13:32:44;;;;;;;;;;;8.50;99.90;;;;;;7336635;19;111242;-64
2023/12/18 13:35:12;;;;;;;;;;;8.50;99.90;;;;;;7335174;19;109631;-64
2023/12/18 13:37:39;;;;;;;;;;;8.50;99.90;;;;;;7333608;19;110148;-64
2023/12/18 13:40:07;;;;;;;;;;;8.60;99.90;;;;;;7336785;19;108932;-64
2023/12/18 13:42:34;;;;;;;;;;;8.60;99.90;;;;;;7332821;19;109043;-64
2023/12/18 13:45:01;;;;;;;;;;;8.50;99.90;;;;;;7334150;19;110476;-64
2023/12/18 13:47:29;;;;;;;;;;;8.60;99.90;;;;;;7333895;19;110101;-64
2023/12/18 13:49:56;;;;;;;;;;;8.60;99.90;;;;;;7337777;19;109092;-64
2023/12/18 13:52:25;;;;;;;;;;;8.50;99.90;;;;;;7333499;19;109917;-64
2023/12/18 13:54:52;;;;;;;;;;;8.50;99.90;;;;;;7340379;19;108724;-64
2023/12/18 13:57:19;;;;;;;;;;;8.40;99.90;;;;;;7336489;19;110948;-64
2023/12/18 13:59:47;;;;;;;;;;;8.40;99.90;;;;;;7334905;19;109120;-64
2023/12/18 14:02:15;;;;;;;;;;;8.40;99.90;;;;;;7332927;19;108865;-64
2023/12/18 14:04:42;;;;;;;;;;;8.30;99.90;;;;;;7330894;19;109387;-64
2023/12/18 14:07:09;;;;;;;;;;;8.30;99.90;;;;;;7333061;19;108882;-64
2023/12/18 14:09:37;;;;;;;;;;;8.30;99.90;;;;;;7333277;19;109112;-64
2023/12/18 14:12:04;;;;;;;;;;;8.30;99.90;;;;;;7333226;19;109155;-64
2023/12/18 14:14:32;;;;;;;;;;;8.20;99.90;;;;;;7334274;19;110822;-64
2023/12/18 14:17:00;;;;;;;;;;;8.30;99.90;;;;;;7340786;19;108540;-64
2023/12/18 14:19:27;;;;;;;;;;;8.30;99.90;;;;;;7337182;19;109507;-64
2023/12/18 14:21:54;;;;;;;;;;;8.20;99.90;;;;;;7333976;19;108359;-64
2023/12/18 14:24:21;;;;;;;;;;;8.20;99.90;;;;;;7334175;19;110063;-64
2023/12/18 14:26:48;;;;;;;;;;;8.20;99.90;;;;;;7334410;19;109503;-64